MSR912 HECA-OMDB
Flight info
| Callsign | MSR912 |
|---|---|
| Flight time | N/A |
| Altitude | 41000 |
| Route | OBTAV L315 HGD M872 PMA Y214 RAPMA/N0522F290 Y214 RIBOT DCT ELUDA G783 ASPED Q308 RUDAT/N0476F240 M762 MIVEK P574 IMPED |
| Aircraft | B789/H-SDE1E2E3FGHIJ2J3J4J5M1RWXY/LB1D1 |
Departure
| Time | 2026-05-05 19:27 |
|---|---|
| Airport | Cairo International Airport (HECA) |
Arrival
| Time | N/A |
|---|---|
| Airport | Dubai International Airport (OMDB) |
| Time | Latitude | Longitude | Altitude | Speed | Heading |
|---|---|---|---|---|---|
| 2026-05-05 19:00 | 30.10824 | 31.40024 | 379 ft | 0 kts | 254° |
| 2026-05-05 19:13 | 30.10825 | 31.40029 | 380 ft | 3 kts | 255° |
| 2026-05-05 19:14 | 30.10829 | 31.40045 | 380 ft | 4 kts | 259° |
| 2026-05-05 19:14 | 30.10833 | 31.40076 | 380 ft | 4 kts | 259° |
| 2026-05-05 19:14 | 30.10840 | 31.40102 | 380 ft | 4 kts | 230° |
| 2026-05-05 19:14 | 30.10855 | 31.40119 | 380 ft | 4 kts | 207° |
| 2026-05-05 19:15 | 30.10878 | 31.40124 | 380 ft | 4 kts | 176° |
| 2026-05-05 19:15 | 30.10893 | 31.40123 | 380 ft | 3 kts | 179° |
| 2026-05-05 19:19 | 30.10888 | 31.40123 | 380 ft | 2 kts | 179° |
| 2026-05-05 19:20 | 30.10878 | 31.40127 | 380 ft | 1 kts | 152° |
| 2026-05-05 19:20 | 30.10875 | 31.40134 | 380 ft | 1 kts | 119° |
| 2026-05-05 19:20 | 30.10875 | 31.40143 | 380 ft | 2 kts | 84° |
| 2026-05-05 19:20 | 30.10901 | 31.40189 | 380 ft | 10 kts | 51° |
| 2026-05-05 19:21 | 30.10950 | 31.40255 | 380 ft | 12 kts | 55° |
| 2026-05-05 19:21 | 30.10952 | 31.40352 | 380 ft | 14 kts | 108° |
| 2026-05-05 19:21 | 30.10911 | 31.40453 | 380 ft | 13 kts | 145° |
| 2026-05-05 19:21 | 30.10858 | 31.40450 | 380 ft | 5 kts | 223° |
| 2026-05-05 19:22 | 30.10826 | 31.40412 | 380 ft | 15 kts | 228° |
| 2026-05-05 19:22 | 30.10747 | 31.40312 | 380 ft | 15 kts | 213° |
| 2026-05-05 19:22 | 30.10702 | 31.40310 | 380 ft | 3 kts | 144° |
| 2026-05-05 19:22 | 30.10652 | 31.40321 | 380 ft | 10 kts | 198° |
| 2026-05-05 19:23 | 30.10590 | 31.40259 | 380 ft | 12 kts | 231° |
| 2026-05-05 19:23 | 30.10531 | 31.40178 | 380 ft | 14 kts | 230° |
| 2026-05-05 19:23 | 30.10465 | 31.40090 | 380 ft | 15 kts | 227° |
| 2026-05-05 19:23 | 30.10395 | 31.39997 | 380 ft | 16 kts | 230° |
| 2026-05-05 19:24 | 30.10320 | 31.39894 | 380 ft | 17 kts | 230° |
| 2026-05-05 19:24 | 30.10245 | 31.39794 | 380 ft | 16 kts | 229° |
| 2026-05-05 19:24 | 30.10173 | 31.39698 | 380 ft | 11 kts | 226° |
| 2026-05-05 19:24 | 30.10103 | 31.39657 | 380 ft | 11 kts | 184° |
| 2026-05-05 19:25 | 30.10033 | 31.39692 | 380 ft | 12 kts | 136° |
| 2026-05-05 19:25 | 30.10004 | 31.39780 | 380 ft | 13 kts | 93° |
| 2026-05-05 19:25 | 30.10007 | 31.39893 | 377 ft | 13 kts | 69° |
| 2026-05-05 19:25 | 30.10068 | 31.39961 | 376 ft | 8 kts | 46° |
| 2026-05-05 19:26 | 30.10072 | 31.39966 | 376 ft | 1 kts | 46° |
| 2026-05-05 19:26 | 30.10086 | 31.39983 | 376 ft | 12 kts | 47° |
| 2026-05-05 19:26 | 30.10279 | 31.40240 | 380 ft | 79 kts | 49° |
| 2026-05-05 19:26 | 30.10808 | 31.40941 | 377 ft | 151 kts | 49° |
| 2026-05-05 19:27 | 30.11597 | 31.42009 | 728 ft | 184 kts | 50° |
| 2026-05-05 19:27 | 30.12324 | 31.43072 | 2140 ft | 153 kts | 47° |
| 2026-05-05 19:27 | 30.12986 | 31.44075 | 2963 ft | 165 kts | 47° |
| 2026-05-05 19:27 | 30.13733 | 31.45169 | 3584 ft | 182 kts | 46° |
| 2026-05-05 19:28 | 30.14582 | 31.46387 | 4186 ft | 207 kts | 46° |
| 2026-05-05 19:28 | 30.15549 | 31.47749 | 4827 ft | 227 kts | 46° |
| 2026-05-05 19:28 | 30.16574 | 31.49183 | 5451 ft | 237 kts | 46° |
| 2026-05-05 19:28 | 30.17646 | 31.50685 | 6108 ft | 245 kts | 46° |
| 2026-05-05 19:29 | 30.18740 | 31.52230 | 6754 ft | 251 kts | 46° |
| 2026-05-05 19:29 | 30.19682 | 31.53998 | 7125 ft | 280 kts | 74° |
| 2026-05-05 19:29 | 30.19581 | 31.56311 | 7884 ft | 300 kts | 112° |
| 2026-05-05 19:29 | 30.18359 | 31.58259 | 8936 ft | 303 kts | 147° |
| 2026-05-05 19:30 | 30.16516 | 31.59422 | 9958 ft | 305 kts | 162° |
| 2026-05-05 19:30 | 30.14534 | 31.60387 | 10642 ft | 326 kts | 161° |
| 2026-05-05 19:30 | 30.12445 | 31.61665 | 11118 ft | 356 kts | 153° |
| 2026-05-05 19:30 | 30.10316 | 31.63313 | 11536 ft | 384 kts | 149° |
| 2026-05-05 19:31 | 30.08031 | 31.65132 | 12021 ft | 404 kts | 151° |
| 2026-05-05 19:31 | 30.05643 | 31.66861 | 13057 ft | 406 kts | 154° |
| 2026-05-05 19:31 | 30.03199 | 31.68577 | 13904 ft | 415 kts | 153° |
| 2026-05-05 19:31 | 30.00735 | 31.70365 | 14783 ft | 421 kts | 153° |
| 2026-05-05 19:32 | 29.98240 | 31.72212 | 15638 ft | 427 kts | 153° |
| 2026-05-05 19:32 | 29.95717 | 31.74054 | 16466 ft | 432 kts | 154° |
| 2026-05-05 19:32 | 29.93150 | 31.75906 | 17280 ft | 438 kts | 154° |
| 2026-05-05 19:32 | 29.90554 | 31.77785 | 18101 ft | 443 kts | 154° |
| 2026-05-05 19:33 | 29.87939 | 31.79689 | 18844 ft | 449 kts | 154° |
| 2026-05-05 19:33 | 29.85287 | 31.81619 | 19598 ft | 451 kts | 154° |
| 2026-05-05 19:33 | 29.82619 | 31.83551 | 20286 ft | 455 kts | 154° |
| 2026-05-05 19:33 | 29.79924 | 31.85500 | 20960 ft | 459 kts | 154° |
| 2026-05-05 19:34 | 29.77242 | 31.87442 | 21599 ft | 464 kts | 154° |
| 2026-05-05 19:34 | 29.74502 | 31.89428 | 22204 ft | 467 kts | 154° |
| 2026-05-05 19:34 | 29.71738 | 31.91427 | 22802 ft | 471 kts | 154° |
| 2026-05-05 19:35 | 29.66127 | 31.95478 | 23905 ft | 479 kts | 154° |
| 2026-05-05 19:35 | 29.63283 | 31.97531 | 24371 ft | 483 kts | 154° |
| 2026-05-05 19:35 | 29.60437 | 31.99583 | 24819 ft | 486 kts | 154° |
| 2026-05-05 19:35 | 29.57564 | 32.01654 | 25273 ft | 489 kts | 155° |
| 2026-05-05 19:36 | 29.54702 | 32.03715 | 25690 ft | 493 kts | 155° |
| 2026-05-05 19:36 | 29.51785 | 32.05814 | 26107 ft | 496 kts | 155° |
| 2026-05-05 19:36 | 29.48850 | 32.07927 | 26536 ft | 499 kts | 155° |
| 2026-05-05 19:36 | 29.45900 | 32.10046 | 26982 ft | 502 kts | 156° |
| 2026-05-05 19:37 | 29.42924 | 32.12183 | 27302 ft | 506 kts | 156° |
| 2026-05-05 19:37 | 29.39925 | 32.14335 | 27737 ft | 509 kts | 156° |
| 2026-05-05 19:37 | 29.36920 | 32.16490 | 28143 ft | 512 kts | 156° |
| 2026-05-05 19:37 | 29.33881 | 32.18668 | 28518 ft | 516 kts | 156° |
| 2026-05-05 19:38 | 29.30830 | 32.20854 | 28897 ft | 519 kts | 156° |
| 2026-05-05 19:38 | 29.27759 | 32.23051 | 29273 ft | 522 kts | 156° |
| 2026-05-05 19:38 | 29.24668 | 32.25261 | 29653 ft | 525 kts | 156° |
| 2026-05-05 19:38 | 29.21588 | 32.27463 | 29985 ft | 528 kts | 157° |
| 2026-05-05 19:39 | 29.18459 | 32.29696 | 30302 ft | 531 kts | 156° |
| 2026-05-05 19:39 | 29.15320 | 32.31938 | 30632 ft | 533 kts | 156° |
| 2026-05-05 19:39 | 29.12168 | 32.34186 | 30943 ft | 535 kts | 156° |
| 2026-05-05 19:39 | 29.09008 | 32.36438 | 31283 ft | 535 kts | 156° |
| 2026-05-05 19:40 | 29.05855 | 32.38684 | 31640 ft | 535 kts | 156° |
| 2026-05-05 19:40 | 29.02695 | 32.40934 | 32110 ft | 533 kts | 156° |
| 2026-05-05 19:40 | 28.99553 | 32.43169 | 32580 ft | 531 kts | 157° |
| 2026-05-05 19:40 | 28.96423 | 32.45391 | 33045 ft | 529 kts | 157° |
| 2026-05-05 19:41 | 28.93301 | 32.47606 | 33512 ft | 527 kts | 157° |
| 2026-05-05 19:41 | 28.90187 | 32.49816 | 33887 ft | 527 kts | 157° |
| 2026-05-05 19:41 | 28.87083 | 32.52019 | 34340 ft | 524 kts | 157° |
| 2026-05-05 19:41 | 28.83982 | 32.54215 | 34579 ft | 524 kts | 157° |
| 2026-05-05 19:42 | 28.80887 | 32.56404 | 35058 ft | 521 kts | 157° |
| 2026-05-05 19:42 | 28.77801 | 32.58589 | 35406 ft | 520 kts | 157° |
| 2026-05-05 19:42 | 28.74765 | 32.60735 | 35723 ft | 519 kts | 157° |